sensor_id;sensor_type;location;lat;lon;timestamp;pressure;altitude;pressure_sealevel;temperature;humidity
36538;BME280;22545;48.892;9.138;2022-11-03T00:01:09;98504.97;;;7.32;100.00
36538;BME280;22545;48.892;9.138;2022-11-03T00:03:34;98504.06;;;7.36;100.00
36538;BME280;22545;48.892;9.138;2022-11-03T00:05:59;98496.44;;;7.33;100.00
36538;BME280;22545;48.892;9.138;2022-11-03T00:08:38;98504.94;;;7.35;100.00
36538;BME280;22545;48.892;9.138;2022-11-03T00:11:04;98499.06;;;7.29;100.00
36538;BME280;22545;48.892;9.138;2022-11-03T00:13:29;98493.91;;;7.32;100.00
36538;BME280;22545;48.892;9.138;2022-11-03T00:15:54;98482.00;;;7.29;100.00
36538;BME280;22545;48.892;9.138;2022-11-03T00:18:20;98490.50;;;7.31;100.00
36538;BME280;22545;48.892;9.138;2022-11-03T00:20:53;98493.16;;;7.25;100.00
36538;BME280;22545;48.892;9.138;2022-11-03T00:23:19;98482.88;;;7.28;100.00
36538;BME280;22545;48.892;9.138;2022-11-03T00:25:46;98476.13;;;7.22;100.00
36538;BME280;22545;48.892;9.138;2022-11-03T00:28:11;98476.22;;;7.18;100.00
36538;BME280;22545;48.892;9.138;2022-11-03T00:30:37;98487.31;;;7.18;100.00
36538;BME280;22545;48.892;9.138;2022-11-03T00:33:03;98473.75;;;7.12;100.00
36538;BME280;22545;48.892;9.138;2022-11-03T00:35:28;98467.63;;;7.22;100.00
36538;BME280;22545;48.892;9.138;2022-11-03T00:37:53;98471.09;;;7.18;100.00
36538;BME280;22545;48.892;9.138;2022-11-03T00:40:18;98464.44;;;7.07;100.00
36538;BME280;22545;48.892;9.138;2022-11-03T00:42:43;98457.56;;;7.13;100.00
36538;BME280;22545;48.892;9.138;2022-11-03T00:45:09;98447.34;;;7.11;100.00
36538;BME280;22545;48.892;9.138;2022-11-03T00:47:34;98463.59;;;7.07;100.00
36538;BME280;22545;48.892;9.138;2022-11-03T00:50:19;98457.69;;;7.05;100.00
36538;BME280;22545;48.892;9.138;2022-11-03T00:52:44;98447.50;;;7.02;100.00
36538;BME280;22545;48.892;9.138;2022-11-03T00:55:10;98443.25;;;7.01;100.00
36538;BME280;22545;48.892;9.138;2022-11-03T00:57:35;98443.28;;;6.99;100.00
36538;BME280;22545;48.892;9.138;2022-11-03T01:00:00;98446.66;;;7.01;100.00
36538;BME280;22545;48.892;9.138;2022-11-03T01:02:25;98445.00;;;6.99;100.00
36538;BME280;22545;48.892;9.138;2022-11-03T01:04:50;98450.16;;;6.96;100.00
36538;BME280;22545;48.892;9.138;2022-11-03T01:07:34;98437.34;;;6.97;100.00
36538;BME280;22545;48.892;9.138;2022-11-03T01:09:59;98434.94;;;6.89;100.00
36538;BME280;22545;48.892;9.138;2022-11-03T01:12:25;98439.09;;;6.94;100.00
36538;BME280;22545;48.892;9.138;2022-11-03T01:14:52;98444.25;;;6.92;100.00
36538;BME280;22545;48.892;9.138;2022-11-03T01:17:21;98434.91;;;6.91;100.00
36538;BME280;22545;48.892;9.138;2022-11-03T01:19:47;98428.13;;;6.88;100.00
36538;BME280;22545;48.892;9.138;2022-11-03T01:22:12;98431.47;;;6.92;100.00
36538;BME280;22545;48.892;9.138;2022-11-03T01:24:38;98421.31;;;6.87;100.00
36538;BME280;22545;48.892;9.138;2022-11-03T01:27:05;98417.03;;;6.88;100.00
36538;BME280;22545;48.892;9.138;2022-11-03T01:29:30;98418.69;;;6.90;100.00
36538;BME280;22545;48.892;9.138;2022-11-03T01:31:56;98410.22;;;6.88;100.00
36538;BME280;22545;48.892;9.138;2022-11-03T01:34:21;98402.59;;;6.85;100.00
36538;BME280;22545;48.892;9.138;2022-11-03T01:36:47;98403.50;;;6.83;100.00
36538;BME280;22545;48.892;9.138;2022-11-03T01:39:13;98390.06;;;6.71;100.00
36538;BME280;22545;48.892;9.138;2022-11-03T01:41:39;98392.72;;;6.64;100.00
36538;BME280;22545;48.892;9.138;2022-11-03T01:46:36;98376.75;;;6.49;100.00
36538;BME280;22545;48.892;9.138;2022-11-03T01:49:07;98379.38;;;6.46;100.00
36538;BME280;22545;48.892;9.138;2022-11-03T01:51:35;98369.22;;;6.42;100.00
36538;BME280;22545;48.892;9.138;2022-11-03T01:54:02;98377.78;;;6.37;100.00
36538;BME280;22545;48.892;9.138;2022-11-03T01:56:28;98383.75;;;6.36;100.00
36538;BME280;22545;48.892;9.138;2022-11-03T01:58:56;98386.22;;;6.43;100.00
36538;BME280;22545;48.892;9.138;2022-11-03T02:01:21;98378.59;;;6.40;100.00
36538;BME280;22545;48.892;9.138;2022-11-03T02:03:48;98382.03;;;6.38;100.00
36538;BME280;22545;48.892;9.138;2022-11-03T02:06:15;98381.13;;;6.41;100.00
36538;BME280;22545;48.892;9.138;2022-11-03T02:08:48;98386.22;;;6.43;100.00
36538;BME280;22545;48.892;9.138;2022-11-03T02:11:15;98385.47;;;6.37;100.00
36538;BME280;22545;48.892;9.138;2022-11-03T02:13:59;98381.19;;;6.36;100.00
36538;BME280;22545;48.892;9.138;2022-11-03T02:16:25;98380.34;;;6.37;100.00
36538;BME280;22545;48.892;9.138;2022-11-03T02:18:52;98377.03;;;6.32;100.00
36538;BME280;22545;48.892;9.138;2022-11-03T02:21:24;98371.91;;;6.32;100.00
36538;BME280;22545;48.892;9.138;2022-11-03T02:26:35;98361.75;;;6.26;100.00
36538;BME280;22545;48.892;9.138;2022-11-03T02:29:00;98360.13;;;6.24;100.00
36538;BME280;22545;48.892;9.138;2022-11-03T02:32:27;98361.88;;;6.18;100.00
36538;BME280;22545;48.892;9.138;2022-11-03T02:34:21;98353.47;;;6.12;100.00
36538;BME280;22545;48.892;9.138;2022-11-03T02:36:58;98343.25;;;6.13;100.00
36538;BME280;22545;48.892;9.138;2022-11-03T02:39:30;98351.81;;;6.09;100.00
36538;BME280;22545;48.892;9.138;2022-11-03T02:41:56;98339.09;;;6.05;100.00
36538;BME280;22545;48.892;9.138;2022-11-03T02:44:23;98336.50;;;6.08;100.00
36538;BME280;22545;48.892;9.138;2022-11-03T02:46:51;98339.91;;;6.07;100.00
36538;BME280;22545;48.892;9.138;2022-11-03T02:49:18;98338.28;;;6.02;100.00
36538;BME280;22545;48.892;9.138;2022-11-03T02:51:43;98335.75;;;6.01;100.00
36538;BME280;22545;48.892;9.138;2022-11-03T02:54:10;98324.66;;;6.03;100.00
36538;BME280;22545;48.892;9.138;2022-11-03T02:56:44;98319.50;;;6.08;100.00
36538;BME280;22545;48.892;9.138;2022-11-03T02:59:13;98319.50;;;6.07;100.00
36538;BME280;22545;48.892;9.138;2022-11-03T03:01:41;98307.69;;;5.99;100.00
36538;BME280;22545;48.892;9.138;2022-11-03T03:04:16;98307.72;;;5.96;100.00
36538;BME280;22545;48.892;9.138;2022-11-03T03:06:48;98294.94;;;5.96;100.00
36538;BME280;22545;48.892;9.138;2022-11-03T03:09:17;98297.50;;;5.96;100.00
36538;BME280;22545;48.892;9.138;2022-11-03T03:11:43;98300.06;;;5.98;100.00
36538;BME280;22545;48.892;9.138;2022-11-03T03:14:12;98292.44;;;5.93;100.00
36538;BME280;22545;48.892;9.138;2022-11-03T03:16:46;98290.72;;;5.97;100.00
36538;BME280;22545;48.892;9.138;2022-11-03T03:21:39;98280.59;;;5.89;100.00
36538;BME280;22545;48.892;9.138;2022-11-03T03:24:08;98278.88;;;5.90;100.00
36538;BME280;22545;48.892;9.138;2022-11-03T03:26:39;98279.72;;;5.92;100.00
36538;BME280;22545;48.892;9.138;2022-11-03T03:29:07;98275.50;;;5.88;100.00
36538;BME280;22545;48.892;9.138;2022-11-03T03:31:35;98275.53;;;5.86;100.00
36538;BME280;22545;48.892;9.138;2022-11-03T03:34:02;98266.97;;;5.87;100.00
36538;BME280;22545;48.892;9.138;2022-11-03T03:36:28;98266.09;;;5.90;100.00
36538;BME280;22545;48.892;9.138;2022-11-03T03:38:55;98262.78;;;5.84;100.00
36538;BME280;22545;48.892;9.138;2022-11-03T03:41:20;98267.81;;;5.89;100.00
36538;BME280;22545;48.892;9.138;2022-11-03T03:43:51;98261.84;;;5.90;100.00
36538;BME280;22545;48.892;9.138;2022-11-03T03:46:18;98252.53;;;5.88;100.00
36538;BME280;22545;48.892;9.138;2022-11-03T03:48:45;98253.38;;;5.87;100.00
36538;BME280;22545;48.892;9.138;2022-11-03T03:51:10;98246.59;;;5.85;100.00
36538;BME280;22545;48.892;9.138;2022-11-03T03:53:36;98243.19;;;5.85;100.00
36538;BME280;22545;48.892;9.138;2022-11-03T03:56:02;98242.38;;;5.84;100.00
36538;BME280;22545;48.892;9.138;2022-11-03T03:58:29;98240.56;;;5.90;100.00
36538;BME280;22545;48.892;9.138;2022-11-03T04:00:55;98237.03;;;6.01;100.00
36538;BME280;22545;48.892;9.138;2022-11-03T04:03:21;98229.22;;;6.11;100.00
36538;BME280;22545;48.892;9.138;2022-11-03T04:05:47;98232.69;;;6.05;100.00
36538;BME280;22545;48.892;9.138;2022-11-03T04:08:12;98214.94;;;5.99;100.00
36538;BME280;22545;48.892;9.138;2022-11-03T04:10:38;98220.06;;;5.97;100.00
36538;BME280;22545;48.892;9.138;2022-11-03T04:13:04;98204.78;;;5.93;100.00
36538;BME280;22545;48.892;9.138;2022-11-03T04:15:47;98196.41;;;5.86;100.00
36538;BME280;22545;48.892;9.138;2022-11-03T04:18:13;98202.31;;;5.88;100.00
36538;BME280;22545;48.892;9.138;2022-11-03T04:20:57;98205.66;;;5.93;100.00
36538;BME280;22545;48.892;9.138;2022-11-03T04:23:41;98193.91;;;5.83;100.00
36538;BME280;22545;48.892;9.138;2022-11-03T04:26:13;98202.34;;;5.87;100.00
36538;BME280;22545;48.892;9.138;2022-11-03T04:28:39;98190.44;;;5.85;100.00
36538;BME280;22545;48.892;9.138;2022-11-03T04:31:05;98186.22;;;5.84;100.00
36538;BME280;22545;48.892;9.138;2022-11-03T04:33:30;98180.25;;;5.84;100.00
36538;BME280;22545;48.892;9.138;2022-11-03T04:35:57;98175.06;;;5.90;100.00
36538;BME280;22545;48.892;9.138;2022-11-03T04:38:23;98177.63;;;5.87;100.00
36538;BME280;22545;48.892;9.138;2022-11-03T04:40:53;98185.31;;;5.89;100.00
36538;BME280;22545;48.892;9.138;2022-11-03T04:43:20;98175.94;;;5.89;100.00
36538;BME280;22545;48.892;9.138;2022-11-03T04:45:46;98175.09;;;5.89;100.00
36538;BME280;22545;48.892;9.138;2022-11-03T04:48:13;98180.22;;;5.85;100.00
36538;BME280;22545;48.892;9.138;2022-11-03T04:50:39;98169.16;;;5.87;100.00
36538;BME280;22545;48.892;9.138;2022-11-03T04:53:08;98171.72;;;5.85;100.00
36538;BME280;22545;48.892;9.138;2022-11-03T04:55:33;98162.31;;;5.87;100.00
36538;BME280;22545;48.892;9.138;2022-11-03T04:57:59;98164.97;;;5.82;100.00
36538;BME280;22545;48.892;9.138;2022-11-03T05:00:26;98168.31;;;5.86;100.00
36538;BME280;22545;48.892;9.138;2022-11-03T05:02:51;98167.53;;;5.81;100.00
36538;BME280;22545;48.892;9.138;2022-11-03T05:05:20;98156.56;;;5.76;100.00
36538;BME280;22545;48.892;9.138;2022-11-03T05:07:46;98159.19;;;5.73;100.00
36538;BME280;22545;48.892;9.138;2022-11-03T05:10:16;98153.25;;;5.71;100.00
36538;BME280;22545;48.892;9.138;2022-11-03T05:12:42;98151.53;;;5.71;100.00
36538;BME280;22545;48.892;9.138;2022-11-03T05:15:20;98154.03;;;5.74;100.00
36538;BME280;22545;48.892;9.138;2022-11-03T05:17:46;98144.72;;;5.72;100.00
36538;BME280;22545;48.892;9.138;2022-11-03T05:20:23;98137.81;;;5.78;100.00
36538;BME280;22545;48.892;9.138;2022-11-03T05:22:50;98137.84;;;5.77;100.00
36538;BME280;22545;48.892;9.138;2022-11-03T05:25:33;98141.22;;;5.79;100.00
36538;BME280;22545;48.892;9.138;2022-11-03T05:28:00;98133.53;;;5.80;100.00
36538;BME280;22545;48.892;9.138;2022-11-03T05:30:25;98125.91;;;5.79;100.00
36538;BME280;22545;48.892;9.138;2022-11-03T05:32:51;98135.31;;;5.75;100.00
36538;BME280;22545;48.892;9.138;2022-11-03T05:35:18;98123.41;;;5.74;100.00
36538;BME280;22545;48.892;9.138;2022-11-03T05:37:45;98115.00;;;5.69;100.00
36538;BME280;22545;48.892;9.138;2022-11-03T05:40:28;98112.47;;;5.67;100.00
36538;BME280;22545;48.892;9.138;2022-11-03T05:42:57;98098.13;;;5.62;100.00
36538;BME280;22545;48.892;9.138;2022-11-03T05:45:33;98101.53;;;5.61;100.00
36538;BME280;22545;48.892;9.138;2022-11-03T05:47:59;98100.75;;;5.57;100.00
36538;BME280;22545;48.892;9.138;2022-11-03T05:50:29;98096.47;;;5.58;100.00
36538;BME280;22545;48.892;9.138;2022-11-03T05:55:40;98090.69;;;5.48;100.00
36538;BME280;22545;48.892;9.138;2022-11-03T05:58:28;98089.88;;;5.44;100.00
36538;BME280;22545;48.892;9.138;2022-11-03T06:00:52;98098.34;;;5.48;100.00
36538;BME280;22545;48.892;9.138;2022-11-03T06:03:24;98099.31;;;5.41;100.00
36538;BME280;22545;48.892;9.138;2022-11-03T06:05:52;98092.50;;;5.40;100.00
36538;BME280;22545;48.892;9.138;2022-11-03T06:08:18;98087.34;;;5.43;100.00
36538;BME280;22545;48.892;9.138;2022-11-03T06:11:05;98081.47;;;5.39;100.00
36538;BME280;22545;48.892;9.138;2022-11-03T06:13:33;98084.06;;;5.36;100.00
36538;BME280;22545;48.892;9.138;2022-11-03T06:18:50;98079.03;;;5.31;100.00
36538;BME280;22545;48.892;9.138;2022-11-03T06:21:18;98065.41;;;5.32;100.00
36538;BME280;22545;48.892;9.138;2022-11-03T06:23:45;98063.69;;;5.35;100.00
36538;BME280;22545;48.892;9.138;2022-11-03T06:26:21;98053.34;;;5.44;100.00
36538;BME280;22545;48.892;9.138;2022-11-03T06:28:48;98049.88;;;5.48;100.00
36538;BME280;22545;48.892;9.138;2022-11-03T06:31:17;98039.66;;;5.46;100.00
36538;BME280;22545;48.892;9.138;2022-11-03T06:33:44;98041.44;;;5.43;100.00
36538;BME280;22545;48.892;9.138;2022-11-03T06:36:20;98049.00;;;5.47;100.00
36538;BME280;22545;48.892;9.138;2022-11-03T06:38:47;98044.66;;;5.54;100.00
36538;BME280;22545;48.892;9.138;2022-11-03T06:41:19;98052.16;;;5.63;100.00
36538;BME280;22545;48.892;9.138;2022-11-03T06:43:45;98058.94;;;5.63;100.00
36538;BME280;22545;48.892;9.138;2022-11-03T06:46:18;98048.63;;;5.71;100.00
36538;BME280;22545;48.892;9.138;2022-11-03T06:48:44;98062.09;;;5.79;100.00
36538;BME280;22545;48.892;9.138;2022-11-03T06:51:18;98068.91;;;5.78;100.00
36538;BME280;22545;48.892;9.138;2022-11-03T06:53:44;98063.63;;;5.89;100.00
36538;BME280;22545;48.892;9.138;2022-11-03T06:56:12;98067.84;;;5.90;100.00
36538;BME280;22545;48.892;9.138;2022-11-03T06:58:39;98062.69;;;5.93;100.00
36538;BME280;22545;48.892;9.138;2022-11-03T07:01:13;98054.13;;;5.97;100.00
36538;BME280;22545;48.892;9.138;2022-11-03T07:03:39;98051.59;;;5.94;100.00
36538;BME280;22545;48.892;9.138;2022-11-03T07:13:30;98038.31;;;6.24;100.00
36538;BME280;22545;48.892;9.138;2022-11-03T07:15:56;98030.47;;;6.33;100.00
36538;BME280;22545;48.892;9.138;2022-11-03T07:18:22;98020.25;;;6.33;100.00
36538;BME280;22545;48.892;9.138;2022-11-03T07:20:49;98017.56;;;6.39;100.00
36538;BME280;22545;48.892;9.138;2022-11-03T07:23:17;98002.19;;;6.41;100.00
36538;BME280;22545;48.892;9.138;2022-11-03T07:25:44;98007.16;;;6.47;100.00
36538;BME280;22545;48.892;9.138;2022-11-03T07:28:13;98007.72;;;6.61;100.00
36538;BME280;22545;48.892;9.138;2022-11-03T07:30:39;98012.72;;;6.66;100.00
36538;BME280;22545;48.892;9.138;2022-11-03T07:33:12;98008.25;;;6.76;100.00
36538;BME280;22545;48.892;9.138;2022-11-03T07:35:40;98004.16;;;7.04;100.00
36538;BME280;22545;48.892;9.138;2022-11-03T07:38:10;97997.81;;;7.21;100.00
36538;BME280;22545;48.892;9.138;2022-11-03T07:40:37;97998.34;;;7.34;100.00
36538;BME280;22545;48.892;9.138;2022-11-03T07:43:17;97996.84;;;7.59;100.00
36538;BME280;22545;48.892;9.138;2022-11-03T07:45:43;98001.63;;;7.72;100.00
36538;BME280;22545;48.892;9.138;2022-11-03T07:48:25;97992.81;;;7.51;100.00
36538;BME280;22545;48.892;9.138;2022-11-03T07:51:00;97990.44;;;7.43;100.00
36538;BME280;22545;48.892;9.138;2022-11-03T07:55:55;97986.81;;;7.52;100.00
36538;BME280;22545;48.892;9.138;2022-11-03T07:58:24;97985.56;;;7.67;100.00
36538;BME280;22545;48.892;9.138;2022-11-03T08:00:53;97987.13;;;7.72;100.00
36538;BME280;22545;48.892;9.138;2022-11-03T08:03:43;97984.44;;;7.77;100.00
36538;BME280;22545;48.892;9.138;2022-11-03T08:06:07;97970.66;;;7.81;100.00
36538;BME280;22545;48.892;9.138;2022-11-03T08:08:32;97973.22;;;8.12;100.00
36538;BME280;22545;48.892;9.138;2022-11-03T08:10:57;97967.72;;;8.25;100.00
36538;BME280;22545;48.892;9.138;2022-11-03T08:13:23;97963.56;;;8.22;100.00
36538;BME280;22545;48.892;9.138;2022-11-03T08:15:48;97954.00;;;8.27;100.00
36538;BME280;22545;48.892;9.138;2022-11-03T08:18:13;97949.69;;;8.28;100.00
36538;BME280;22545;48.892;9.138;2022-11-03T08:20:38;97938.13;;;8.44;100.00
36538;BME280;22545;48.892;9.138;2022-11-03T08:23:03;97934.50;;;8.52;100.00
36538;BME280;22545;48.892;9.138;2022-11-03T08:25:29;97924.56;;;8.69;100.00
36538;BME280;22545;48.892;9.138;2022-11-03T08:27:55;97922.44;;;8.82;100.00
36538;BME280;22545;48.892;9.138;2022-11-03T08:30:20;97914.78;;;8.80;100.00
36538;BME280;22545;48.892;9.138;2022-11-03T08:32:45;97912.94;;;8.85;100.00
36538;BME280;22545;48.892;9.138;2022-11-03T08:35:11;97918.91;;;8.86;100.00
36538;BME280;22545;48.892;9.138;2022-11-03T08:37:36;97917.25;;;8.83;100.00
36538;BME280;22545;48.892;9.138;2022-11-03T08:40:01;97912.69;;;8.93;100.00
36538;BME280;22545;48.892;9.138;2022-11-03T08:42:26;97902.28;;;8.98;100.00
36538;BME280;22545;48.892;9.138;2022-11-03T08:44:51;97897.81;;;9.03;100.00
36538;BME280;22545;48.892;9.138;2022-11-03T08:47:17;97902.44;;;9.18;100.00
36538;BME280;22545;48.892;9.138;2022-11-03T08:49:42;97903.34;;;9.17;100.00
36538;BME280;22545;48.892;9.138;2022-11-03T08:52:07;97897.31;;;9.18;100.00
36538;BME280;22545;48.892;9.138;2022-11-03T08:54:32;97881.72;;;9.25;100.00
36538;BME280;22545;48.892;9.138;2022-11-03T08:56:57;97891.28;;;9.19;100.00
36538;BME280;22545;48.892;9.138;2022-11-03T08:59:23;97890.81;;;9.08;100.00
36538;BME280;22545;48.892;9.138;2022-11-03T09:01:48;97878.53;;;9.42;100.00
36538;BME280;22545;48.892;9.138;2022-11-03T09:04:13;97886.84;;;9.48;100.00
36538;BME280;22545;48.892;9.138;2022-11-03T09:06:38;97877.34;;;9.52;100.00
36538;BME280;22545;48.892;9.138;2022-11-03T09:09:05;97876.44;;;9.77;100.00
36538;BME280;22545;48.892;9.138;2022-11-03T09:11:30;97879.50;;;9.86;100.00
36538;BME280;22545;48.892;9.138;2022-11-03T09:13:55;97873.56;;;10.08;100.00
36538;BME280;22545;48.892;9.138;2022-11-03T09:16:21;97872.00;;;10.04;100.00
36538;BME280;22545;48.892;9.138;2022-11-03T09:18:47;97867.34;;;10.14;100.00
36538;BME280;22545;48.892;9.138;2022-11-03T09:21:12;97865.53;;;10.39;100.00
36538;BME280;22545;48.892;9.138;2022-11-03T09:23:38;97865.31;;;10.22;100.00
36538;BME280;22545;48.892;9.138;2022-11-03T09:26:04;97862.91;;;10.17;100.00
36538;BME280;22545;48.892;9.138;2022-11-03T09:28:30;97864.09;;;10.08;100.00
36538;BME280;22545;48.892;9.138;2022-11-03T09:30:56;97861.75;;;10.48;100.00
36538;BME280;22545;48.892;9.138;2022-11-03T09:33:21;97854.91;;;10.25;100.00
36538;BME280;22545;48.892;9.138;2022-11-03T09:35:46;97845.78;;;10.40;100.00
36538;BME280;22545;48.892;9.138;2022-11-03T09:38:11;97843.63;;;10.51;100.00
36538;BME280;22545;48.892;9.138;2022-11-03T09:40:36;97844.09;;;10.61;100.00
36538;BME280;22545;48.892;9.138;2022-11-03T09:43:02;97838.88;;;10.62;100.00
36538;BME280;22545;48.892;9.138;2022-11-03T09:45:27;97849.44;;;10.77;100.00
36538;BME280;22545;48.892;9.138;2022-11-03T09:47:52;97849.50;;;10.75;100.00
36538;BME280;22545;48.892;9.138;2022-11-03T09:50:18;97836.19;;;10.86;100.00
36538;BME280;22545;48.892;9.138;2022-11-03T09:52:44;97825.97;;;11.05;100.00
36538;BME280;22545;48.892;9.138;2022-11-03T09:55:14;97821.78;;;10.82;100.00
36538;BME280;22545;48.892;9.138;2022-11-03T09:57:40;97773.69;;;10.63;100.00
36538;BME280;22545;48.892;9.138;2022-11-03T10:00:06;97815.94;;;10.99;100.00
36538;BME280;22545;48.892;9.138;2022-11-03T10:02:34;97804.44;;;10.87;100.00
36538;BME280;22545;48.892;9.138;2022-11-03T10:05:00;97810.47;;;10.86;100.00
36538;BME280;22545;48.892;9.138;2022-11-03T10:07:26;97802.00;;;10.84;100.00
36538;BME280;22545;48.892;9.138;2022-11-03T10:09:52;97809.19;;;10.76;100.00
36538;BME280;22545;48.892;9.138;2022-11-03T10:12:19;97806.69;;;10.74;100.00
36538;BME280;22545;48.892;9.138;2022-11-03T10:14:45;97798.47;;;10.66;100.00
36538;BME280;22545;48.892;9.138;2022-11-03T10:17:14;97798.19;;;10.72;100.00
36538;BME280;22545;48.892;9.138;2022-11-03T10:19:41;97800.19;;;10.66;100.00
36538;BME280;22545;48.892;9.138;2022-11-03T10:22:07;97789.75;;;10.69;100.00
36538;BME280;22545;48.892;9.138;2022-11-03T10:24:32;97787.19;;;10.69;100.00
36538;BME280;22545;48.892;9.138;2022-11-03T10:26:58;97795.69;;;10.71;100.00
36538;BME280;22545;48.892;9.138;2022-11-03T10:29:23;97788.34;;;10.82;100.00
36538;BME280;22545;48.892;9.138;2022-11-03T10:31:50;97775.69;;;10.77;100.00
36538;BME280;22545;48.892;9.138;2022-11-03T10:34:24;97771.38;;;10.78;100.00
36538;BME280;22545;48.892;9.138;2022-11-03T10:36:50;97762.22;;;10.91;100.00
36538;BME280;22545;48.892;9.138;2022-11-03T10:39:33;97761.84;;;11.01;100.00
36538;BME280;22545;48.892;9.138;2022-11-03T10:41:58;97755.28;;;10.93;100.00
36538;BME280;22545;48.892;9.138;2022-11-03T10:44:27;97753.34;;;10.98;100.00
36538;BME280;22545;48.892;9.138;2022-11-03T10:46:56;97749.03;;;10.99;100.00
36538;BME280;22545;48.892;9.138;2022-11-03T10:49:28;97747.91;;;11.05;100.00
36538;BME280;22545;48.892;9.138;2022-11-03T10:51:56;97736.59;;;11.09;100.00
36538;BME280;22545;48.892;9.138;2022-11-03T10:54:23;97743.50;;;11.08;100.00
36538;BME280;22545;48.892;9.138;2022-11-03T10:56:48;97733.13;;;11.10;100.00
36538;BME280;22545;48.892;9.138;2022-11-03T10:59:18;97722.03;;;11.08;100.00
36538;BME280;22545;48.892;9.138;2022-11-03T11:01:44;97724.41;;;11.12;100.00
36538;BME280;22545;48.892;9.138;2022-11-03T11:04:11;97722.28;;;11.22;100.00
36538;BME280;22545;48.892;9.138;2022-11-03T11:06:38;97721.59;;;11.19;100.00
36538;BME280;22545;48.892;9.138;2022-11-03T11:09:04;97719.97;;;11.16;100.00
36538;BME280;22545;48.892;9.138;2022-11-03T11:11:30;97704.53;;;11.16;100.00
36538;BME280;22545;48.892;9.138;2022-11-03T11:16:46;97690.50;;;11.23;100.00
36538;BME280;22545;48.892;9.138;2022-11-03T11:19:11;97680.72;;;11.30;100.00
36538;BME280;22545;48.892;9.138;2022-11-03T11:24:02;97674.94;;;11.44;100.00
36538;BME280;22545;48.892;9.138;2022-11-03T11:26:33;97675.78;;;11.44;100.00
36538;BME280;22545;48.892;9.138;2022-11-03T11:31:36;97655.72;;;11.51;100.00
36538;BME280;22545;48.892;9.138;2022-11-03T11:36:33;97666.78;;;11.53;100.00
36538;BME280;22545;48.892;9.138;2022-11-03T11:38:58;97661.50;;;11.56;100.00
36538;BME280;22545;48.892;9.138;2022-11-03T11:42:03;97650.50;;;11.52;100.00
36538;BME280;22545;48.892;9.138;2022-11-03T11:47:02;97647.91;;;11.52;100.00
36538;BME280;22545;48.892;9.138;2022-11-03T11:49:28;97643.09;;;11.64;100.00
36538;BME280;22545;48.892;9.138;2022-11-03T11:51:53;97626.78;;;11.63;100.00
36538;BME280;22545;48.892;9.138;2022-11-03T11:54:24;97624.44;;;11.59;100.00
36538;BME280;22545;48.892;9.138;2022-11-03T11:56:49;97618.25;;;11.63;100.00
36538;BME280;22545;48.892;9.138;2022-11-03T11:59:15;97625.31;;;11.59;100.00
36538;BME280;22545;48.892;9.138;2022-11-03T12:01:42;97607.88;;;11.64;100.00
36538;BME280;22545;48.892;9.138;2022-11-03T12:06:39;97600.81;;;11.68;100.00
36538;BME280;22545;48.892;9.138;2022-11-03T12:16:55;97579.69;;;11.79;100.00
36538;BME280;22545;48.892;9.138;2022-11-03T12:19:37;97574.69;;;11.76;100.00
36538;BME280;22545;48.892;9.138;2022-11-03T12:22:06;97584.84;;;11.79;100.00
36538;BME280;22545;48.892;9.138;2022-11-03T12:27:01;97577.19;;;11.77;100.00
36538;BME280;22545;48.892;9.138;2022-11-03T12:29:26;97569.59;;;11.74;100.00
36538;BME280;22545;48.892;9.138;2022-11-03T12:31:52;97560.00;;;11.78;100.00
36538;BME280;22545;48.892;9.138;2022-11-03T12:34:17;97564.31;;;11.77;100.00
36538;BME280;22545;48.892;9.138;2022-11-03T12:36:43;97563.31;;;11.80;100.00
36538;BME280;22545;48.892;9.138;2022-11-03T12:39:08;97549.75;;;11.76;100.00
36538;BME280;22545;48.892;9.138;2022-11-03T12:41:33;97537.69;;;11.77;100.00
36538;BME280;22545;48.892;9.138;2022-11-03T12:43:59;97522.41;;;11.74;100.00
36538;BME280;22545;48.892;9.138;2022-11-03T12:46:24;97532.53;;;11.77;100.00
36538;BME280;22545;48.892;9.138;2022-11-03T12:48:49;97524.97;;;11.74;100.00
36538;BME280;22545;48.892;9.138;2022-11-03T12:51:15;97526.03;;;11.69;100.00
36538;BME280;22545;48.892;9.138;2022-11-03T12:53:41;97521.88;;;11.67;100.00
36538;BME280;22545;48.892;9.138;2022-11-03T12:56:06;97515.13;;;11.64;100.00
36538;BME280;22545;48.892;9.138;2022-11-03T12:58:32;97501.34;;;11.65;100.00
36538;BME280;22545;48.892;9.138;2022-11-03T13:00:57;97492.69;;;11.66;100.00
36538;BME280;22545;48.892;9.138;2022-11-03T13:03:23;97498.78;;;11.65;100.00
36538;BME280;22545;48.892;9.138;2022-11-03T13:05:48;97496.13;;;11.67;100.00
36538;BME280;22545;48.892;9.138;2022-11-03T13:08:13;97492.44;;;11.55;100.00
36538;BME280;22545;48.892;9.138;2022-11-03T13:10:38;97482.94;;;11.56;100.00
36538;BME280;22545;48.892;9.138;2022-11-03T13:13:04;97471.28;;;11.48;100.00
36538;BME280;22545;48.892;9.138;2022-11-03T13:15:29;97468.78;;;11.47;100.00
36538;BME280;22545;48.892;9.138;2022-11-03T13:17:55;97470.53;;;11.46;100.00
36538;BME280;22545;48.892;9.138;2022-11-03T13:20:20;97460.06;;;11.49;100.00
36538;BME280;22545;48.892;9.138;2022-11-03T13:22:45;97450.75;;;11.47;100.00
36538;BME280;22545;48.892;9.138;2022-11-03T13:25:10;97441.38;;;11.46;100.00
36538;BME280;22545;48.892;9.138;2022-11-03T13:27:36;97429.81;;;11.37;100.00
36538;BME280;22545;48.892;9.138;2022-11-03T13:30:01;97434.81;;;11.40;100.00
36538;BME280;22545;48.892;9.138;2022-11-03T13:32:26;97423.22;;;11.49;100.00
36538;BME280;22545;48.892;9.138;2022-11-03T13:34:52;97423.38;;;11.46;100.00
36538;BME280;22545;48.892;9.138;2022-11-03T13:37:17;97414.47;;;11.51;100.00
36538;BME280;22545;48.892;9.138;2022-11-03T13:39:42;97404.94;;;11.54;100.00
36538;BME280;22545;48.892;9.138;2022-11-03T13:42:07;97402.44;;;11.52;100.00
36538;BME280;22545;48.892;9.138;2022-11-03T13:44:33;97399.03;;;11.51;100.00
36538;BME280;22545;48.892;9.138;2022-11-03T13:46:58;97397.63;;;11.46;100.00
36538;BME280;22545;48.892;9.138;2022-11-03T13:49:23;97384.59;;;11.49;100.00